Misawa Air Base, Japan

2:50 AM JST on July 12, 2014 (GMT +0900)
Hachinohe Aero (RJSH) Elev 161 ft | 40.55 °N, 141.47 °E | Change Station

Current weather conditions updated 13 hours ago

Clear
Clear
66 °F
Feels Like 66 °F
N
13
Wind Variable Wind from West
Gusts mph

Today is forecast to be Much Warmer than yesterday. Showers and thunderstorms late.

Today
High -- | Low -- °F
--% Chance of Precip.
Yesterday
High -- | Low -- °F
Precip. -- in
4:13 AM 7:06 PM
Waxing Gibbous, 99% visible
Pressure 29.33 in
Visibility 5.0 miles
Clouds Few 400 ft
Scattered Clouds 1000 ft
Mostly Cloudy 1500 ft
Dew Point 64 °F
Humidity 94%
Rainfall 0.00 in
Snow Depth Not available.
UV 5 out of 12
Pollen Not available.
Air Quality Not available.
Flu Activity Not available.
SPECI RJSH 110407Z VRB02KT 8000 FEW004 SCT010 BKN015 20/19 Q0993 RMK 2ST004 4ST010 7CU015 A2933

More Conditions Fewer Conditions

Pressure 29.33 in
Visibility 5.0 miles
Clouds Few 400 ft
Scattered Clouds 1000 ft
Mostly Cloudy 1500 ft
Dew Point 64 °F
Humidity 94%
Rainfall 0.00 in
Snow Depth Not available.
UV 5 out of 12
Pollen Not available.
Air Quality Not available.
Flu Activity Not available.
SPECI RJSH 110407Z VRB02KT 8000 FEW004 SCT010 BKN015 20/19 Q0993 RMK 2ST004 4ST010 7CU015 A2933

More Conditions Fewer Conditions

10-Day Weather Forecast

Almanac

Astronomy

Jul. 12, 2014 Rise Set
Actual Time 4:13 AM JST 7:06 PM JST
Civil Twilight 3:40 AM JST 7:38 PM JST
Nautical Twilight 2:59 AM JST 8:19 PM JST
Astronomical Twilight 2:12 AM JST 9:07 PM JST
Moon 6:35 PM JST (7/12) 3:49 AM JST (7/12)
Length of Visible Light 15h 57m
Length of Day
14h 52m
Tomorrow will be 1m 13s shorter.
Waxing Gibbous, 99% of the Moon is Illuminated
Jul 11
Waxing Gibbous
Jul 12
Full
Jul 18
Last Quarter
Jul 26
New
Aug 3
First Quarter

Yesterday's Extremes

Country Highs Country Lows

Community

WunderPhotos

Upload Photos

1,732,535 photos uploaded!

Nearby

Snow Depth

Not available.

Earthquake Activity

City Distance Mag. Time & Date
No recent earthquake activity has been reported nearby.
Minimum magnitude displayed is 2.5.

Coastal Water Temperatures

Place Temperature
No Stations Reporting

Nearby Weather Stations

There are no personal weather stations in this area.